sensor_id;sensor_type;location;lat;lon;timestamp;temperature;humidity
73955;DHT22;62306;52.516;13.290;2023-04-29T00:00:14;12.80;99.40
73955;DHT22;62306;52.516;13.290;2023-04-29T00:02:42;12.70;99.60
73955;DHT22;62306;52.516;13.290;2023-04-29T00:05:09;12.60;99.50
73955;DHT22;62306;52.516;13.290;2023-04-29T00:07:37;12.60;99.70
73955;DHT22;62306;52.516;13.290;2023-04-29T00:10:05;12.60;99.90
73955;DHT22;62306;52.516;13.290;2023-04-29T00:12:32;12.60;99.70
73955;DHT22;62306;52.516;13.290;2023-04-29T00:14:59;12.60;99.50
73955;DHT22;62306;52.516;13.290;2023-04-29T00:17:27;12.60;99.80
73955;DHT22;62306;52.516;13.290;2023-04-29T00:19:54;12.50;99.90
73955;DHT22;62306;52.516;13.290;2023-04-29T00:22:21;12.50;99.90
73955;DHT22;62306;52.516;13.290;2023-04-29T00:24:49;12.50;99.90
73955;DHT22;62306;52.516;13.290;2023-04-29T00:27:17;12.60;99.90
73955;DHT22;62306;52.516;13.290;2023-04-29T00:29:44;12.50;99.80
73955;DHT22;62306;52.516;13.290;2023-04-29T00:32:11;12.60;99.90
73955;DHT22;62306;52.516;13.290;2023-04-29T00:34:38;12.50;99.90
73955;DHT22;62306;52.516;13.290;2023-04-29T00:37:05;12.50;99.90
73955;DHT22;62306;52.516;13.290;2023-04-29T00:39:31;12.30;99.90
73955;DHT22;62306;52.516;13.290;2023-04-29T00:42:00;12.50;99.90
73955;DHT22;62306;52.516;13.290;2023-04-29T00:44:27;12.50;99.90
73955;DHT22;62306;52.516;13.290;2023-04-29T00:46:54;12.50;99.90
73955;DHT22;62306;52.516;13.290;2023-04-29T00:49:21;12.50;99.90
73955;DHT22;62306;52.516;13.290;2023-04-29T00:51:49;12.50;99.90
73955;DHT22;62306;52.516;13.290;2023-04-29T00:54:16;12.50;99.90
73955;DHT22;62306;52.516;13.290;2023-04-29T00:56:44;12.50;99.90
73955;DHT22;62306;52.516;13.290;2023-04-29T00:59:13;12.60;99.90
73955;DHT22;62306;52.516;13.290;2023-04-29T01:01:41;12.50;99.90
73955;DHT22;62306;52.516;13.290;2023-04-29T01:04:09;12.40;99.90
73955;DHT22;62306;52.516;13.290;2023-04-29T01:06:45;12.40;99.90
73955;DHT22;62306;52.516;13.290;2023-04-29T01:09:22;12.20;99.90
73955;DHT22;62306;52.516;13.290;2023-04-29T01:11:57;12.20;99.90
73955;DHT22;62306;52.516;13.290;2023-04-29T01:14:32;12.20;99.90
73955;DHT22;62306;52.516;13.290;2023-04-29T01:17:05;12.10;99.90
73955;DHT22;62306;52.516;13.290;2023-04-29T01:19:39;12.20;99.90
73955;DHT22;62306;52.516;13.290;2023-04-29T01:22:10;12.10;99.90
73955;DHT22;62306;52.516;13.290;2023-04-29T01:24:38;12.20;99.90
73955;DHT22;62306;52.516;13.290;2023-04-29T01:27:11;12.20;99.90
73955;DHT22;62306;52.516;13.290;2023-04-29T01:29:44;12.20;99.90
73955;DHT22;62306;52.516;13.290;2023-04-29T01:32:17;12.20;99.90
73955;DHT22;62306;52.516;13.290;2023-04-29T01:34:51;12.20;99.90
73955;DHT22;62306;52.516;13.290;2023-04-29T01:37:27;12.20;99.90
73955;DHT22;62306;52.516;13.290;2023-04-29T01:40:08;12.20;99.90
73955;DHT22;62306;52.516;13.290;2023-04-29T01:42:41;12.20;99.90
73955;DHT22;62306;52.516;13.290;2023-04-29T01:45:10;12.20;99.90
73955;DHT22;62306;52.516;13.290;2023-04-29T01:47:41;12.10;99.90
73955;DHT22;62306;52.516;13.290;2023-04-29T01:50:09;12.00;99.90
73955;DHT22;62306;52.516;13.290;2023-04-29T01:52:36;12.00;99.90
73955;DHT22;62306;52.516;13.290;2023-04-29T01:55:05;11.90;99.90
73955;DHT22;62306;52.516;13.290;2023-04-29T01:57:32;11.90;99.90
73955;DHT22;62306;52.516;13.290;2023-04-29T01:59:59;12.00;99.90
73955;DHT22;62306;52.516;13.290;2023-04-29T02:02:26;12.00;99.90
73955;DHT22;62306;52.516;13.290;2023-04-29T02:04:53;12.00;99.90
73955;DHT22;62306;52.516;13.290;2023-04-29T02:07:20;12.00;99.90
73955;DHT22;62306;52.516;13.290;2023-04-29T02:09:48;12.10;99.90
73955;DHT22;62306;52.516;13.290;2023-04-29T02:12:16;12.10;99.90
73955;DHT22;62306;52.516;13.290;2023-04-29T02:14:43;12.40;99.90
73955;DHT22;62306;52.516;13.290;2023-04-29T02:17:12;12.10;99.90
73955;DHT22;62306;52.516;13.290;2023-04-29T02:19:39;12.00;99.90
73955;DHT22;62306;52.516;13.290;2023-04-29T02:22:06;12.00;99.90
73955;DHT22;62306;52.516;13.290;2023-04-29T02:24:32;11.90;99.90
73955;DHT22;62306;52.516;13.290;2023-04-29T02:26:59;12.00;99.90
73955;DHT22;62306;52.516;13.290;2023-04-29T02:29:31;12.00;99.90
73955;DHT22;62306;52.516;13.290;2023-04-29T02:31:58;11.90;99.90
73955;DHT22;62306;52.516;13.290;2023-04-29T02:34:25;12.00;99.90
73955;DHT22;62306;52.516;13.290;2023-04-29T02:36:52;11.90;99.90
73955;DHT22;62306;52.516;13.290;2023-04-29T02:39:19;12.00;99.90
73955;DHT22;62306;52.516;13.290;2023-04-29T02:41:46;11.90;99.90
73955;DHT22;62306;52.516;13.290;2023-04-29T02:44:13;11.90;99.90
73955;DHT22;62306;52.516;13.290;2023-04-29T02:46:41;12.00;99.90
73955;DHT22;62306;52.516;13.290;2023-04-29T02:49:11;12.00;99.90
73955;DHT22;62306;52.516;13.290;2023-04-29T02:51:38;12.00;99.90
73955;DHT22;62306;52.516;13.290;2023-04-29T02:54:05;12.00;99.90
73955;DHT22;62306;52.516;13.290;2023-04-29T02:56:32;12.00;99.90
73955;DHT22;62306;52.516;13.290;2023-04-29T02:58:59;12.00;99.90
73955;DHT22;62306;52.516;13.290;2023-04-29T03:01:26;12.00;99.90
73955;DHT22;62306;52.516;13.290;2023-04-29T03:03:55;12.00;99.90
73955;DHT22;62306;52.516;13.290;2023-04-29T03:06:21;11.90;99.90
73955;DHT22;62306;52.516;13.290;2023-04-29T03:08:48;11.90;99.90
73955;DHT22;62306;52.516;13.290;2023-04-29T03:11:15;11.90;99.90
73955;DHT22;62306;52.516;13.290;2023-04-29T03:13:42;12.00;99.90
73955;DHT22;62306;52.516;13.290;2023-04-29T03:16:10;12.00;99.90
73955;DHT22;62306;52.516;13.290;2023-04-29T03:18:38;12.00;99.90
73955;DHT22;62306;52.516;13.290;2023-04-29T03:21:07;11.90;99.90
73955;DHT22;62306;52.516;13.290;2023-04-29T03:23:33;12.00;99.90
73955;DHT22;62306;52.516;13.290;2023-04-29T03:26:00;12.00;99.90
73955;DHT22;62306;52.516;13.290;2023-04-29T03:28:27;12.00;99.90
73955;DHT22;62306;52.516;13.290;2023-04-29T03:30:54;12.00;99.90
73955;DHT22;62306;52.516;13.290;2023-04-29T03:33:23;12.10;99.90
73955;DHT22;62306;52.516;13.290;2023-04-29T03:35:50;12.00;99.90
73955;DHT22;62306;52.516;13.290;2023-04-29T03:38:18;12.10;99.90
73955;DHT22;62306;52.516;13.290;2023-04-29T03:40:45;12.10;99.90
73955;DHT22;62306;52.516;13.290;2023-04-29T03:43:12;12.10;99.90
73955;DHT22;62306;52.516;13.290;2023-04-29T03:45:39;12.10;99.90
73955;DHT22;62306;52.516;13.290;2023-04-29T03:48:06;12.10;99.90
73955;DHT22;62306;52.516;13.290;2023-04-29T03:50:34;12.10;99.90
73955;DHT22;62306;52.516;13.290;2023-04-29T03:53:01;12.10;99.90
73955;DHT22;62306;52.516;13.290;2023-04-29T03:55:29;12.20;99.90
73955;DHT22;62306;52.516;13.290;2023-04-29T03:57:56;12.10;99.90
73955;DHT22;62306;52.516;13.290;2023-04-29T04:00:23;12.10;99.90
73955;DHT22;62306;52.516;13.290;2023-04-29T04:02:51;12.20;99.90
73955;DHT22;62306;52.516;13.290;2023-04-29T04:05:17;12.20;99.90
73955;DHT22;62306;52.516;13.290;2023-04-29T04:07:45;12.20;99.90
73955;DHT22;62306;52.516;13.290;2023-04-29T04:10:12;12.20;99.90
73955;DHT22;62306;52.516;13.290;2023-04-29T04:12:40;12.30;99.90
73955;DHT22;62306;52.516;13.290;2023-04-29T04:15:08;12.30;99.90
73955;DHT22;62306;52.516;13.290;2023-04-29T04:17:35;12.30;99.90
73955;DHT22;62306;52.516;13.290;2023-04-29T04:20:02;12.30;99.90
73955;DHT22;62306;52.516;13.290;2023-04-29T04:22:29;12.30;99.90
73955;DHT22;62306;52.516;13.290;2023-04-29T04:24:56;12.40;99.90
73955;DHT22;62306;52.516;13.290;2023-04-29T04:27:23;12.40;99.90
73955;DHT22;62306;52.516;13.290;2023-04-29T04:29:54;12.40;99.90
73955;DHT22;62306;52.516;13.290;2023-04-29T04:32:21;12.40;99.90
73955;DHT22;62306;52.516;13.290;2023-04-29T04:34:48;12.40;99.90
73955;DHT22;62306;52.516;13.290;2023-04-29T04:37:15;12.40;99.90
73955;DHT22;62306;52.516;13.290;2023-04-29T04:39:42;12.40;99.90
73955;DHT22;62306;52.516;13.290;2023-04-29T04:42:09;12.40;99.90
73955;DHT22;62306;52.516;13.290;2023-04-29T04:44:36;12.50;99.90
73955;DHT22;62306;52.516;13.290;2023-04-29T04:47:04;12.50;99.90
73955;DHT22;62306;52.516;13.290;2023-04-29T04:49:31;12.50;99.90
73955;DHT22;62306;52.516;13.290;2023-04-29T04:51:58;12.50;99.90
73955;DHT22;62306;52.516;13.290;2023-04-29T04:54:25;12.60;99.90
73955;DHT22;62306;52.516;13.290;2023-04-29T04:56:52;12.60;99.90
73955;DHT22;62306;52.516;13.290;2023-04-29T04:59:19;12.60;99.90
73955;DHT22;62306;52.516;13.290;2023-04-29T05:01:46;12.70;99.90
73955;DHT22;62306;52.516;13.290;2023-04-29T05:04:14;12.70;99.90
73955;DHT22;62306;52.516;13.290;2023-04-29T05:06:41;12.70;99.90
73955;DHT22;62306;52.516;13.290;2023-04-29T05:09:08;12.70;99.90
73955;DHT22;62306;52.516;13.290;2023-04-29T05:11:35;12.70;99.90
73955;DHT22;62306;52.516;13.290;2023-04-29T05:14:02;12.70;99.90
73955;DHT22;62306;52.516;13.290;2023-04-29T05:16:29;12.70;99.90
73955;DHT22;62306;52.516;13.290;2023-04-29T05:18:56;12.70;99.90
73955;DHT22;62306;52.516;13.290;2023-04-29T05:21:24;12.70;99.90
73955;DHT22;62306;52.516;13.290;2023-04-29T05:23:51;12.70;99.90
73955;DHT22;62306;52.516;13.290;2023-04-29T05:26:18;12.70;99.90
73955;DHT22;62306;52.516;13.290;2023-04-29T05:28:45;12.70;99.90
73955;DHT22;62306;52.516;13.290;2023-04-29T05:31:12;12.80;99.90
73955;DHT22;62306;52.516;13.290;2023-04-29T05:33:39;12.70;99.90
73955;DHT22;62306;52.516;13.290;2023-04-29T05:36:06;12.70;99.90
73955;DHT22;62306;52.516;13.290;2023-04-29T05:38:35;12.70;99.90
73955;DHT22;62306;52.516;13.290;2023-04-29T05:41:02;12.80;99.90
73955;DHT22;62306;52.516;13.290;2023-04-29T05:43:29;12.80;99.90
73955;DHT22;62306;52.516;13.290;2023-04-29T05:45:56;12.70;99.90
73955;DHT22;62306;52.516;13.290;2023-04-29T05:48:23;12.80;99.90
73955;DHT22;62306;52.516;13.290;2023-04-29T05:50:50;12.70;99.90
73955;DHT22;62306;52.516;13.290;2023-04-29T05:53:18;12.60;99.90
73955;DHT22;62306;52.516;13.290;2023-04-29T05:55:46;12.80;99.90
73955;DHT22;62306;52.516;13.290;2023-04-29T05:58:15;12.70;99.90
73955;DHT22;62306;52.516;13.290;2023-04-29T06:00:42;12.80;99.90
73955;DHT22;62306;52.516;13.290;2023-04-29T06:03:09;12.80;99.90
73955;DHT22;62306;52.516;13.290;2023-04-29T06:05:36;12.80;99.90
73955;DHT22;62306;52.516;13.290;2023-04-29T06:08:04;12.90;99.90
73955;DHT22;62306;52.516;13.290;2023-04-29T06:10:31;12.90;99.90
73955;DHT22;62306;52.516;13.290;2023-04-29T06:13:00;12.80;99.90
73955;DHT22;62306;52.516;13.290;2023-04-29T06:15:26;12.80;99.90
73955;DHT22;62306;52.516;13.290;2023-04-29T06:17:54;12.80;99.90
73955;DHT22;62306;52.516;13.290;2023-04-29T06:20:21;12.80;99.90
73955;DHT22;62306;52.516;13.290;2023-04-29T06:22:47;12.80;99.90
73955;DHT22;62306;52.516;13.290;2023-04-29T06:25:15;12.90;99.90
73955;DHT22;62306;52.516;13.290;2023-04-29T06:27:42;12.90;99.90
73955;DHT22;62306;52.516;13.290;2023-04-29T06:30:10;12.90;99.90
73955;DHT22;62306;52.516;13.290;2023-04-29T06:32:38;12.90;99.90
73955;DHT22;62306;52.516;13.290;2023-04-29T06:35:05;12.90;99.90
73955;DHT22;62306;52.516;13.290;2023-04-29T06:37:32;12.90;99.90
73955;DHT22;62306;52.516;13.290;2023-04-29T06:39:59;13.10;99.90
73955;DHT22;62306;52.516;13.290;2023-04-29T06:42:26;12.90;99.90
73955;DHT22;62306;52.516;13.290;2023-04-29T06:44:53;12.90;99.90
73955;DHT22;62306;52.516;13.290;2023-04-29T06:47:22;13.00;99.90
73955;DHT22;62306;52.516;13.290;2023-04-29T06:49:49;13.10;99.90
73955;DHT22;62306;52.516;13.290;2023-04-29T06:52:17;13.10;99.90
73955;DHT22;62306;52.516;13.290;2023-04-29T06:54:44;13.10;99.90
73955;DHT22;62306;52.516;13.290;2023-04-29T06:57:11;13.00;99.90
73955;DHT22;62306;52.516;13.290;2023-04-29T06:59:38;13.00;99.90
73955;DHT22;62306;52.516;13.290;2023-04-29T07:02:05;13.00;99.90
73955;DHT22;62306;52.516;13.290;2023-04-29T07:04:33;12.90;99.90
73955;DHT22;62306;52.516;13.290;2023-04-29T07:07:02;12.90;99.90
73955;DHT22;62306;52.516;13.290;2023-04-29T07:09:29;12.90;99.90
73955;DHT22;62306;52.516;13.290;2023-04-29T07:11:56;13.00;99.90
73955;DHT22;62306;52.516;13.290;2023-04-29T07:14:23;12.90;99.90
73955;DHT22;62306;52.516;13.290;2023-04-29T07:16:53;12.90;99.90
73955;DHT22;62306;52.516;13.290;2023-04-29T07:19:20;12.90;99.90
73955;DHT22;62306;52.516;13.290;2023-04-29T07:21:49;12.90;99.90
73955;DHT22;62306;52.516;13.290;2023-04-29T07:24:16;12.80;99.90
73955;DHT22;62306;52.516;13.290;2023-04-29T07:26:43;12.80;99.90
73955;DHT22;62306;52.516;13.290;2023-04-29T07:29:10;12.80;99.90
73955;DHT22;62306;52.516;13.290;2023-04-29T07:31:39;12.80;99.90
73955;DHT22;62306;52.516;13.290;2023-04-29T07:34:11;12.80;99.90
73955;DHT22;62306;52.516;13.290;2023-04-29T07:36:38;12.70;99.90
73955;DHT22;62306;52.516;13.290;2023-04-29T07:39:07;12.80;99.90
73955;DHT22;62306;52.516;13.290;2023-04-29T07:41:40;12.70;99.90
73955;DHT22;62306;52.516;13.290;2023-04-29T07:44:15;12.70;99.90
73955;DHT22;62306;52.516;13.290;2023-04-29T07:46:43;12.70;99.90
73955;DHT22;62306;52.516;13.290;2023-04-29T07:49:14;12.70;99.90
73955;DHT22;62306;52.516;13.290;2023-04-29T07:51:42;12.70;99.90
73955;DHT22;62306;52.516;13.290;2023-04-29T07:54:12;12.70;99.90
73955;DHT22;62306;52.516;13.290;2023-04-29T07:56:42;12.60;99.90
73955;DHT22;62306;52.516;13.290;2023-04-29T07:59:16;12.60;99.90
73955;DHT22;62306;52.516;13.290;2023-04-29T08:01:51;12.60;99.90
73955;DHT22;62306;52.516;13.290;2023-04-29T08:04:25;12.70;99.90
73955;DHT22;62306;52.516;13.290;2023-04-29T08:07:03;12.60;99.90
73955;DHT22;62306;52.516;13.290;2023-04-29T08:09:39;12.60;99.90
73955;DHT22;62306;52.516;13.290;2023-04-29T08:12:07;12.60;99.90
73955;DHT22;62306;52.516;13.290;2023-04-29T08:14:42;12.60;99.90
73955;DHT22;62306;52.516;13.290;2023-04-29T08:17:10;12.50;99.90
73955;DHT22;62306;52.516;13.290;2023-04-29T08:19:41;12.50;99.90
73955;DHT22;62306;52.516;13.290;2023-04-29T08:22:09;12.40;99.90
73955;DHT22;62306;52.516;13.290;2023-04-29T08:24:40;12.40;99.90
73955;DHT22;62306;52.516;13.290;2023-04-29T08:27:18;12.40;99.90
73955;DHT22;62306;52.516;13.290;2023-04-29T08:29:49;12.40;99.90
73955;DHT22;62306;52.516;13.290;2023-04-29T08:32:28;12.50;99.90
73955;DHT22;62306;52.516;13.290;2023-04-29T08:35:01;12.50;99.90
73955;DHT22;62306;52.516;13.290;2023-04-29T08:37:28;12.50;99.90
73955;DHT22;62306;52.516;13.290;2023-04-29T08:39:56;12.50;99.90
73955;DHT22;62306;52.516;13.290;2023-04-29T08:42:32;12.50;99.90
73955;DHT22;62306;52.516;13.290;2023-04-29T08:44:59;12.40;99.90
73955;DHT22;62306;52.516;13.290;2023-04-29T08:47:29;12.50;99.90
73955;DHT22;62306;52.516;13.290;2023-04-29T08:50:01;12.50;99.90
73955;DHT22;62306;52.516;13.290;2023-04-29T08:52:28;12.50;99.90
73955;DHT22;62306;52.516;13.290;2023-04-29T08:54:58;12.50;99.90
73955;DHT22;62306;52.516;13.290;2023-04-29T08:57:28;12.60;99.90
73955;DHT22;62306;52.516;13.290;2023-04-29T08:59:58;12.60;99.90
73955;DHT22;62306;52.516;13.290;2023-04-29T09:02:26;12.60;99.90
73955;DHT22;62306;52.516;13.290;2023-04-29T09:04:59;12.60;99.90
73955;DHT22;62306;52.516;13.290;2023-04-29T09:07:31;12.60;99.90
73955;DHT22;62306;52.516;13.290;2023-04-29T09:10:01;12.60;99.90
73955;DHT22;62306;52.516;13.290;2023-04-29T09:12:29;12.70;99.90
73955;DHT22;62306;52.516;13.290;2023-04-29T09:14:57;12.70;99.90
73955;DHT22;62306;52.516;13.290;2023-04-29T09:17:38;12.60;99.90
73955;DHT22;62306;52.516;13.290;2023-04-29T09:20:25;12.50;99.90
73955;DHT22;62306;52.516;13.290;2023-04-29T09:22:53;12.40;99.90
73955;DHT22;62306;52.516;13.290;2023-04-29T09:25:22;12.40;99.90
73955;DHT22;62306;52.516;13.290;2023-04-29T09:27:49;12.40;99.90
73955;DHT22;62306;52.516;13.290;2023-04-29T09:30:16;12.30;99.90
73955;DHT22;62306;52.516;13.290;2023-04-29T09:32:44;12.30;99.90
73955;DHT22;62306;52.516;13.290;2023-04-29T09:35:21;12.20;99.90
73955;DHT22;62306;52.516;13.290;2023-04-29T09:37:48;12.20;99.90
73955;DHT22;62306;52.516;13.290;2023-04-29T09:40:29;12.20;99.90
73955;DHT22;62306;52.516;13.290;2023-04-29T09:42:56;12.20;99.90
73955;DHT22;62306;52.516;13.290;2023-04-29T09:45:36;12.20;99.90
73955;DHT22;62306;52.516;13.290;2023-04-29T09:48:04;12.20;99.90
73955;DHT22;62306;52.516;13.290;2023-04-29T09:50:31;12.10;99.90
73955;DHT22;62306;52.516;13.290;2023-04-29T09:52:59;12.10;99.90
73955;DHT22;62306;52.516;13.290;2023-04-29T09:55:26;12.10;99.90
73955;DHT22;62306;52.516;13.290;2023-04-29T09:57:55;12.20;99.90
73955;DHT22;62306;52.516;13.290;2023-04-29T10:00:22;12.20;99.90
73955;DHT22;62306;52.516;13.290;2023-04-29T10:02:50;12.20;99.90
73955;DHT22;62306;52.516;13.290;2023-04-29T10:05:20;12.30;99.90
73955;DHT22;62306;52.516;13.290;2023-04-29T10:07:48;12.40;99.90
73955;DHT22;62306;52.516;13.290;2023-04-29T10:10:16;12.40;99.90
73955;DHT22;62306;52.516;13.290;2023-04-29T10:12:44;12.50;99.90
73955;DHT22;62306;52.516;13.290;2023-04-29T10:15:19;12.50;99.90
73955;DHT22;62306;52.516;13.290;2023-04-29T10:17:51;12.50;99.90
73955;DHT22;62306;52.516;13.290;2023-04-29T10:20:22;12.50;99.90
73955;DHT22;62306;52.516;13.290;2023-04-29T10:22:50;12.50;99.90
73955;DHT22;62306;52.516;13.290;2023-04-29T10:25:19;12.60;99.90
73955;DHT22;62306;52.516;13.290;2023-04-29T10:27:47;12.60;99.90
73955;DHT22;62306;52.516;13.290;2023-04-29T10:30:18;12.70;99.90
73955;DHT22;62306;52.516;13.290;2023-04-29T10:32:48;12.80;99.90
73955;DHT22;62306;52.516;13.290;2023-04-29T10:35:16;12.90;99.90
73955;DHT22;62306;52.516;13.290;2023-04-29T10:37:45;12.90;99.90
73955;DHT22;62306;52.516;13.290;2023-04-29T10:40:15;12.90;99.90
73955;DHT22;62306;52.516;13.290;2023-04-29T10:42:44;12.80;99.90
73955;DHT22;62306;52.516;13.290;2023-04-29T10:45:23;12.80;99.90
73955;DHT22;62306;52.516;13.290;2023-04-29T10:48:10;12.80;99.90
73955;DHT22;62306;52.516;13.290;2023-04-29T10:51:01;12.80;99.90
73955;DHT22;62306;52.516;13.290;2023-04-29T10:53:29;12.80;99.90
73955;DHT22;62306;52.516;13.290;2023-04-29T10:55:58;13.00;99.90
73955;DHT22;62306;52.516;13.290;2023-04-29T10:58:44;13.00;99.90
73955;DHT22;62306;52.516;13.290;2023-04-29T11:01:14;13.10;99.90
73955;DHT22;62306;52.516;13.290;2023-04-29T11:03:52;13.00;99.90
73955;DHT22;62306;52.516;13.290;2023-04-29T11:06:23;13.10;99.90
73955;DHT22;62306;52.516;13.290;2023-04-29T11:09:01;13.30;99.90
73955;DHT22;62306;52.516;13.290;2023-04-29T11:11:47;13.60;99.90
73955;DHT22;62306;52.516;13.290;2023-04-29T11:14:21;13.40;99.90
73955;DHT22;62306;52.516;13.290;2023-04-29T11:16:53;14.20;99.90
73955;DHT22;62306;52.516;13.290;2023-04-29T11:19:20;14.30;99.90
73955;DHT22;62306;52.516;13.290;2023-04-29T11:22:10;14.50;99.80
73955;DHT22;62306;52.516;13.290;2023-04-29T11:24:48;14.90;98.80
73955;DHT22;62306;52.516;13.290;2023-04-29T11:27:16;15.20;97.80
73955;DHT22;62306;52.516;13.290;2023-04-29T11:29:44;15.20;97.20
73955;DHT22;62306;52.516;13.290;2023-04-29T11:32:12;15.20;97.10
73955;DHT22;62306;52.516;13.290;2023-04-29T11:34:39;15.20;96.40
73955;DHT22;62306;52.516;13.290;2023-04-29T11:37:06;15.20;96.20
73955;DHT22;62306;52.516;13.290;2023-04-29T11:39:33;15.30;95.90
73955;DHT22;62306;52.516;13.290;2023-04-29T11:42:04;15.10;96.20
73955;DHT22;62306;52.516;13.290;2023-04-29T11:44:33;14.80;96.70
73955;DHT22;62306;52.516;13.290;2023-04-29T11:47:03;14.40;97.90
73955;DHT22;62306;52.516;13.290;2023-04-29T11:49:32;14.20;98.30
73955;DHT22;62306;52.516;13.290;2023-04-29T11:52:00;14.30;98.70
73955;DHT22;62306;52.516;13.290;2023-04-29T11:54:27;14.50;98.30
73955;DHT22;62306;52.516;13.290;2023-04-29T11:56:55;14.60;98.30
73955;DHT22;62306;52.516;13.290;2023-04-29T11:59:23;14.80;98.00
73955;DHT22;62306;52.516;13.290;2023-04-29T12:01:50;14.90;97.40
73955;DHT22;62306;52.516;13.290;2023-04-29T12:04:17;14.70;97.50
73955;DHT22;62306;52.516;13.290;2023-04-29T12:06:50;14.60;98.00
73955;DHT22;62306;52.516;13.290;2023-04-29T12:09:17;14.40;98.00
73955;DHT22;62306;52.516;13.290;2023-04-29T12:11:45;14.30;98.30
73955;DHT22;62306;52.516;13.290;2023-04-29T12:14:12;14.30;98.60
73955;DHT22;62306;52.516;13.290;2023-04-29T12:16:40;14.30;98.70
73955;DHT22;62306;52.516;13.290;2023-04-29T12:19:07;14.10;98.80
73955;DHT22;62306;52.516;13.290;2023-04-29T12:21:35;14.00;99.10
73955;DHT22;62306;52.516;13.290;2023-04-29T12:24:03;13.90;99.40
73955;DHT22;62306;52.516;13.290;2023-04-29T12:26:31;14.00;99.40
73955;DHT22;62306;52.516;13.290;2023-04-29T12:28:58;14.10;99.60
73955;DHT22;62306;52.516;13.290;2023-04-29T12:31:31;14.20;99.30
73955;DHT22;62306;52.516;13.290;2023-04-29T12:33:59;14.50;98.80
73955;DHT22;62306;52.516;13.290;2023-04-29T12:36:28;14.70;98.20
73955;DHT22;62306;52.516;13.290;2023-04-29T12:38:55;14.70;97.90
73955;DHT22;62306;52.516;13.290;2023-04-29T12:41:39;14.70;98.10
73955;DHT22;62306;52.516;13.290;2023-04-29T12:44:07;14.70;97.30
73955;DHT22;62306;52.516;13.290;2023-04-29T12:46:36;14.90;97.10
73955;DHT22;62306;52.516;13.290;2023-04-29T12:49:04;15.00;96.60
73955;DHT22;62306;52.516;13.290;2023-04-29T12:51:31;15.20;96.60
73955;DHT22;62306;52.516;13.290;2023-04-29T12:53:59;15.20;96.20
73955;DHT22;62306;52.516;13.290;2023-04-29T12:56:28;15.30;95.90
73955;DHT22;62306;52.516;13.290;2023-04-29T12:59:04;15.50;95.30
73955;DHT22;62306;52.516;13.290;2023-04-29T13:01:31;15.80;94.30
73955;DHT22;62306;52.516;13.290;2023-04-29T13:03:58;15.80;94.20
73955;DHT22;62306;52.516;13.290;2023-04-29T13:06:26;15.80;94.30
73955;DHT22;62306;52.516;13.290;2023-04-29T13:08:53;16.00;93.90
73955;DHT22;62306;52.516;13.290;2023-04-29T13:11:20;16.10;93.60
73955;DHT22;62306;52.516;13.290;2023-04-29T13:13:47;16.00;93.70
73955;DHT22;62306;52.516;13.290;2023-04-29T13:16:15;16.00;93.80
73955;DHT22;62306;52.516;13.290;2023-04-29T13:18:42;15.90;93.80
73955;DHT22;62306;52.516;13.290;2023-04-29T13:21:09;15.90;94.00
73955;DHT22;62306;52.516;13.290;2023-04-29T13:23:36;16.00;93.40
73955;DHT22;62306;52.516;13.290;2023-04-29T13:26:04;15.90;93.70
73955;DHT22;62306;52.516;13.290;2023-04-29T13:28:32;15.90;93.80
73955;DHT22;62306;52.516;13.290;2023-04-29T13:30:59;15.70;94.00
73955;DHT22;62306;52.516;13.290;2023-04-29T13:33:27;15.80;93.60
73955;DHT22;62306;52.516;13.290;2023-04-29T13:35:54;16.00;93.40
73955;DHT22;62306;52.516;13.290;2023-04-29T13:38:21;16.20;93.30
73955;DHT22;62306;52.516;13.290;2023-04-29T13:40:48;16.40;92.20
73955;DHT22;62306;52.516;13.290;2023-04-29T13:43:16;16.50;91.10
73955;DHT22;62306;52.516;13.290;2023-04-29T13:45:43;16.70;90.00
73955;DHT22;62306;52.516;13.290;2023-04-29T13:48:10;16.60;88.10
73955;DHT22;62306;52.516;13.290;2023-04-29T13:50:38;16.50;88.80
73955;DHT22;62306;52.516;13.290;2023-04-29T13:53:05;16.50;89.30
73955;DHT22;62306;52.516;13.290;2023-04-29T13:55:33;16.40;90.00
73955;DHT22;62306;52.516;13.290;2023-04-29T13:58:00;16.40;90.30
73955;DHT22;62306;52.516;13.290;2023-04-29T14:00:27;16.20;90.10
73955;DHT22;62306;52.516;13.290;2023-04-29T14:02:55;15.90;90.70
73955;DHT22;62306;52.516;13.290;2023-04-29T14:05:22;15.70;91.30
73955;DHT22;62306;52.516;13.290;2023-04-29T14:07:50;15.60;91.80
73955;DHT22;62306;52.516;13.290;2023-04-29T14:10:17;15.50;91.60
73955;DHT22;62306;52.516;13.290;2023-04-29T14:12:44;15.40;91.80
73955;DHT22;62306;52.516;13.290;2023-04-29T14:15:11;15.40;91.90
73955;DHT22;62306;52.516;13.290;2023-04-29T14:17:38;15.40;92.40
73955;DHT22;62306;52.516;13.290;2023-04-29T14:20:06;15.50;92.50
73955;DHT22;62306;52.516;13.290;2023-04-29T14:22:33;15.70;92.10
73955;DHT22;62306;52.516;13.290;2023-04-29T14:25:01;15.70;91.60
73955;DHT22;62306;52.516;13.290;2023-04-29T14:27:28;15.80;91.40
73955;DHT22;62306;52.516;13.290;2023-04-29T14:29:55;15.80;91.40
73955;DHT22;62306;52.516;13.290;2023-04-29T14:32:22;15.90;91.20
73955;DHT22;62306;52.516;13.290;2023-04-29T14:34:49;16.00;91.00
73955;DHT22;62306;52.516;13.290;2023-04-29T14:37:16;16.30;90.30
73955;DHT22;62306;52.516;13.290;2023-04-29T14:39:43;16.60;90.10
73955;DHT22;62306;52.516;13.290;2023-04-29T14:42:11;16.90;88.50
73955;DHT22;62306;52.516;13.290;2023-04-29T14:44:39;17.00;86.90
73955;DHT22;62306;52.516;13.290;2023-04-29T14:47:06;17.10;86.00
73955;DHT22;62306;52.516;13.290;2023-04-29T14:49:34;17.20;84.40
73955;DHT22;62306;52.516;13.290;2023-04-29T14:52:01;17.10;83.40
73955;DHT22;62306;52.516;13.290;2023-04-29T14:54:28;17.00;84.30
73955;DHT22;62306;52.516;13.290;2023-04-29T14:56:55;16.80;82.90
73955;DHT22;62306;52.516;13.290;2023-04-29T14:59:24;16.60;82.80
73955;DHT22;62306;52.516;13.290;2023-04-29T15:01:53;16.40;82.30
73955;DHT22;62306;52.516;13.290;2023-04-29T15:04:21;16.20;82.90
73955;DHT22;62306;52.516;13.290;2023-04-29T15:06:49;16.00;83.40
73955;DHT22;62306;52.516;13.290;2023-04-29T15:09:16;15.80;85.00
73955;DHT22;62306;52.516;13.290;2023-04-29T15:11:42;15.80;84.50
73955;DHT22;62306;52.516;13.290;2023-04-29T15:14:12;15.80;85.10
73955;DHT22;62306;52.516;13.290;2023-04-29T15:16:41;15.70;86.40
73955;DHT22;62306;52.516;13.290;2023-04-29T15:19:08;15.70;87.00
73955;DHT22;62306;52.516;13.290;2023-04-29T15:21:35;15.60;87.20
73955;DHT22;62306;52.516;13.290;2023-04-29T15:24:02;15.70;87.00